sensor_id;sensor_type;location;lat;lon;timestamp;P1;durP1;ratioP1;P2;durP2;ratioP2
12163;SDS011;6145;50.192;10.064;2023-06-10T00:01:12;8.57;;;7.53;;
12163;SDS011;6145;50.192;10.064;2023-06-10T00:03:39;7.93;;;7.30;;
12163;SDS011;6145;50.192;10.064;2023-06-10T00:06:10;8.47;;;7.67;;
12163;SDS011;6145;50.192;10.064;2023-06-10T00:08:52;8.00;;;7.27;;
12163;SDS011;6145;50.192;10.064;2023-06-10T00:11:41;8.37;;;7.57;;
12163;SDS011;6145;50.192;10.064;2023-06-10T00:17:22;8.30;;;7.53;;
12163;SDS011;6145;50.192;10.064;2023-06-10T00:19:58;9.40;;;8.50;;
12163;SDS011;6145;50.192;10.064;2023-06-10T00:22:34;9.60;;;8.60;;
12163;SDS011;6145;50.192;10.064;2023-06-10T00:25:00;8.77;;;7.93;;
12163;SDS011;6145;50.192;10.064;2023-06-10T00:27:28;9.10;;;8.30;;
12163;SDS011;6145;50.192;10.064;2023-06-10T00:30:01;8.30;;;7.60;;
12163;SDS011;6145;50.192;10.064;2023-06-10T00:32:29;9.30;;;8.37;;
12163;SDS011;6145;50.192;10.064;2023-06-10T00:35:01;8.10;;;7.40;;
12163;SDS011;6145;50.192;10.064;2023-06-10T00:37:48;9.10;;;8.30;;
12163;SDS011;6145;50.192;10.064;2023-06-10T00:40:43;8.63;;;7.83;;
12163;SDS011;6145;50.192;10.064;2023-06-10T00:43:10;8.87;;;8.07;;
12163;SDS011;6145;50.192;10.064;2023-06-10T00:45:38;9.47;;;8.50;;
12163;SDS011;6145;50.192;10.064;2023-06-10T00:48:05;9.00;;;8.10;;
12163;SDS011;6145;50.192;10.064;2023-06-10T00:50:33;9.27;;;8.37;;
12163;SDS011;6145;50.192;10.064;2023-06-10T00:53:00;9.43;;;8.53;;
12163;SDS011;6145;50.192;10.064;2023-06-10T00:55:27;9.70;;;8.87;;
12163;SDS011;6145;50.192;10.064;2023-06-10T00:57:54;9.90;;;8.97;;
12163;SDS011;6145;50.192;10.064;2023-06-10T01:00:21;9.77;;;8.97;;
12163;SDS011;6145;50.192;10.064;2023-06-10T01:02:49;10.30;;;9.30;;
12163;SDS011;6145;50.192;10.064;2023-06-10T01:05:17;9.77;;;8.90;;
12163;SDS011;6145;50.192;10.064;2023-06-10T01:07:46;10.83;;;9.87;;
12163;SDS011;6145;50.192;10.064;2023-06-10T01:10:23;12.53;;;9.83;;
12163;SDS011;6145;50.192;10.064;2023-06-10T01:12:55;9.47;;;8.70;;
12163;SDS011;6145;50.192;10.064;2023-06-10T01:15:27;9.80;;;8.90;;
12163;SDS011;6145;50.192;10.064;2023-06-10T01:17:57;11.20;;;10.10;;
12163;SDS011;6145;50.192;10.064;2023-06-10T01:20:26;9.67;;;8.77;;
12163;SDS011;6145;50.192;10.064;2023-06-10T01:22:56;9.47;;;8.57;;
12163;SDS011;6145;50.192;10.064;2023-06-10T01:25:23;12.37;;;11.00;;
12163;SDS011;6145;50.192;10.064;2023-06-10T01:27:53;10.40;;;9.40;;
12163;SDS011;6145;50.192;10.064;2023-06-10T01:30:27;10.33;;;9.43;;
12163;SDS011;6145;50.192;10.064;2023-06-10T01:32:58;11.13;;;9.67;;
12163;SDS011;6145;50.192;10.064;2023-06-10T01:35:27;12.43;;;10.90;;
12163;SDS011;6145;50.192;10.064;2023-06-10T01:37:57;12.27;;;10.97;;
12163;SDS011;6145;50.192;10.064;2023-06-10T01:40:26;12.00;;;10.80;;
12163;SDS011;6145;50.192;10.064;2023-06-10T01:42:55;14.03;;;12.63;;
12163;SDS011;6145;50.192;10.064;2023-06-10T01:45:22;14.37;;;12.97;;
12163;SDS011;6145;50.192;10.064;2023-06-10T01:47:49;14.17;;;12.87;;
12163;SDS011;6145;50.192;10.064;2023-06-10T01:50:15;15.17;;;13.70;;
12163;SDS011;6145;50.192;10.064;2023-06-10T01:52:42;12.43;;;11.13;;
12163;SDS011;6145;50.192;10.064;2023-06-10T01:55:10;13.20;;;11.80;;
12163;SDS011;6145;50.192;10.064;2023-06-10T01:57:37;12.23;;;11.13;;
12163;SDS011;6145;50.192;10.064;2023-06-10T02:00:04;13.33;;;12.00;;
12163;SDS011;6145;50.192;10.064;2023-06-10T02:02:32;12.47;;;11.27;;
12163;SDS011;6145;50.192;10.064;2023-06-10T02:04:59;12.70;;;11.50;;
12163;SDS011;6145;50.192;10.064;2023-06-10T02:07:26;12.00;;;10.93;;
12163;SDS011;6145;50.192;10.064;2023-06-10T02:09:53;12.07;;;11.07;;
12163;SDS011;6145;50.192;10.064;2023-06-10T02:12:21;12.53;;;11.40;;
12163;SDS011;6145;50.192;10.064;2023-06-10T02:14:48;11.83;;;10.63;;
12163;SDS011;6145;50.192;10.064;2023-06-10T02:17:15;12.37;;;10.93;;
12163;SDS011;6145;50.192;10.064;2023-06-10T02:19:42;12.70;;;11.50;;
12163;SDS011;6145;50.192;10.064;2023-06-10T02:22:09;12.10;;;10.80;;
12163;SDS011;6145;50.192;10.064;2023-06-10T02:24:38;12.73;;;11.27;;
12163;SDS011;6145;50.192;10.064;2023-06-10T02:27:05;12.50;;;11.30;;
12163;SDS011;6145;50.192;10.064;2023-06-10T02:29:34;12.00;;;10.83;;
12163;SDS011;6145;50.192;10.064;2023-06-10T02:32:01;12.73;;;11.63;;
12163;SDS011;6145;50.192;10.064;2023-06-10T02:34:28;12.60;;;11.30;;
12163;SDS011;6145;50.192;10.064;2023-06-10T02:36:56;11.57;;;10.23;;
12163;SDS011;6145;50.192;10.064;2023-06-10T02:39:22;11.40;;;10.30;;
12163;SDS011;6145;50.192;10.064;2023-06-10T02:41:49;11.33;;;10.20;;
12163;SDS011;6145;50.192;10.064;2023-06-10T02:44:17;10.77;;;9.67;;
12163;SDS011;6145;50.192;10.064;2023-06-10T02:46:46;11.00;;;10.07;;
12163;SDS011;6145;50.192;10.064;2023-06-10T02:49:13;10.60;;;9.70;;
12163;SDS011;6145;50.192;10.064;2023-06-10T02:51:40;11.33;;;10.20;;
12163;SDS011;6145;50.192;10.064;2023-06-10T02:54:07;11.93;;;10.83;;
12163;SDS011;6145;50.192;10.064;2023-06-10T02:56:33;14.50;;;10.67;;
12163;SDS011;6145;50.192;10.064;2023-06-10T02:59:01;11.50;;;10.40;;
12163;SDS011;6145;50.192;10.064;2023-06-10T03:01:28;11.67;;;10.67;;
12163;SDS011;6145;50.192;10.064;2023-06-10T03:03:58;11.27;;;10.27;;
12163;SDS011;6145;50.192;10.064;2023-06-10T03:06:24;11.33;;;10.23;;
12163;SDS011;6145;50.192;10.064;2023-06-10T03:08:51;10.77;;;9.70;;
12163;SDS011;6145;50.192;10.064;2023-06-10T03:11:18;11.33;;;10.30;;
12163;SDS011;6145;50.192;10.064;2023-06-10T03:13:45;10.40;;;9.40;;
12163;SDS011;6145;50.192;10.064;2023-06-10T03:16:12;12.10;;;11.00;;
12163;SDS011;6145;50.192;10.064;2023-06-10T03:18:39;10.40;;;9.40;;
12163;SDS011;6145;50.192;10.064;2023-06-10T03:21:07;10.77;;;9.67;;
12163;SDS011;6145;50.192;10.064;2023-06-10T03:23:34;14.13;;;10.77;;
12163;SDS011;6145;50.192;10.064;2023-06-10T03:26:01;10.90;;;9.73;;
12163;SDS011;6145;50.192;10.064;2023-06-10T03:28:29;10.43;;;9.43;;
12163;SDS011;6145;50.192;10.064;2023-06-10T03:30:56;12.53;;;9.73;;
12163;SDS011;6145;50.192;10.064;2023-06-10T03:33:23;11.53;;;10.63;;
12163;SDS011;6145;50.192;10.064;2023-06-10T03:35:51;11.27;;;9.37;;
12163;SDS011;6145;50.192;10.064;2023-06-10T03:38:19;9.20;;;8.40;;
12163;SDS011;6145;50.192;10.064;2023-06-10T03:40:46;10.13;;;9.17;;
12163;SDS011;6145;50.192;10.064;2023-06-10T03:43:13;9.67;;;8.87;;
12163;SDS011;6145;50.192;10.064;2023-06-10T03:45:40;9.90;;;8.50;;
12163;SDS011;6145;50.192;10.064;2023-06-10T03:48:07;8.90;;;8.20;;
12163;SDS011;6145;50.192;10.064;2023-06-10T03:50:34;9.97;;;9.07;;
12163;SDS011;6145;50.192;10.064;2023-06-10T03:53:01;9.40;;;8.50;;
12163;SDS011;6145;50.192;10.064;2023-06-10T03:55:30;9.23;;;8.30;;
12163;SDS011;6145;50.192;10.064;2023-06-10T03:57:59;9.23;;;8.43;;
12163;SDS011;6145;50.192;10.064;2023-06-10T04:00:25;8.40;;;7.67;;
12163;SDS011;6145;50.192;10.064;2023-06-10T04:02:53;9.13;;;8.27;;
12163;SDS011;6145;50.192;10.064;2023-06-10T04:05:23;8.43;;;7.73;;
12163;SDS011;6145;50.192;10.064;2023-06-10T04:07:50;8.60;;;7.90;;
12163;SDS011;6145;50.192;10.064;2023-06-10T04:10:16;7.70;;;7.00;;
12163;SDS011;6145;50.192;10.064;2023-06-10T04:53:24;8.73;;;7.93;;
12163;SDS011;6145;50.192;10.064;2023-06-10T04:55:52;8.10;;;7.40;;
12163;SDS011;6145;50.192;10.064;2023-06-10T04:58:19;8.30;;;7.53;;
12163;SDS011;6145;50.192;10.064;2023-06-10T05:00:46;8.60;;;7.80;;
12163;SDS011;6145;50.192;10.064;2023-06-10T05:03:12;9.43;;;8.60;;
12163;SDS011;6145;50.192;10.064;2023-06-10T05:05:39;8.23;;;7.53;;
12163;SDS011;6145;50.192;10.064;2023-06-10T05:08:06;8.50;;;7.60;;
12163;SDS011;6145;50.192;10.064;2023-06-10T05:10:34;9.10;;;8.20;;
12163;SDS011;6145;50.192;10.064;2023-06-10T05:13:01;8.57;;;7.77;;
12163;SDS011;6145;50.192;10.064;2023-06-10T05:15:28;9.47;;;8.57;;
12163;SDS011;6145;50.192;10.064;2023-06-10T05:17:56;10.03;;;8.97;;
12163;SDS011;6145;50.192;10.064;2023-06-10T05:20:23;8.77;;;7.97;;
12163;SDS011;6145;50.192;10.064;2023-06-10T05:22:50;8.93;;;8.10;;
12163;SDS011;6145;50.192;10.064;2023-06-10T05:25:17;9.17;;;8.37;;
12163;SDS011;6145;50.192;10.064;2023-06-10T05:27:45;10.17;;;8.53;;
12163;SDS011;6145;50.192;10.064;2023-06-10T05:30:11;8.57;;;7.77;;
12163;SDS011;6145;50.192;10.064;2023-06-10T05:32:38;12.30;;;9.03;;
12163;SDS011;6145;50.192;10.064;2023-06-10T05:35:05;8.87;;;8.03;;
12163;SDS011;6145;50.192;10.064;2023-06-10T05:37:33;9.17;;;8.37;;
12163;SDS011;6145;50.192;10.064;2023-06-10T05:40:01;10.40;;;9.40;;
12163;SDS011;6145;50.192;10.064;2023-06-10T05:42:29;10.70;;;9.70;;
12163;SDS011;6145;50.192;10.064;2023-06-10T05:44:57;10.47;;;9.43;;
12163;SDS011;6145;50.192;10.064;2023-06-10T05:47:24;9.73;;;8.83;;
12163;SDS011;6145;50.192;10.064;2023-06-10T05:49:51;9.00;;;8.30;;
12163;SDS011;6145;50.192;10.064;2023-06-10T05:52:17;9.97;;;7.83;;
12163;SDS011;6145;50.192;10.064;2023-06-10T05:54:44;8.57;;;7.77;;
12163;SDS011;6145;50.192;10.064;2023-06-10T05:57:11;9.07;;;8.27;;
12163;SDS011;6145;50.192;10.064;2023-06-10T05:59:38;8.50;;;7.67;;
12163;SDS011;6145;50.192;10.064;2023-06-10T06:02:07;7.77;;;7.17;;
12163;SDS011;6145;50.192;10.064;2023-06-10T06:04:33;8.50;;;7.70;;
12163;SDS011;6145;50.192;10.064;2023-06-10T06:07:00;7.88;;;7.28;;
12163;SDS011;6145;50.192;10.064;2023-06-10T06:09:27;7.20;;;6.55;;
12163;SDS011;6145;50.192;10.064;2023-06-10T06:11:54;8.18;;;7.50;;
12163;SDS011;6145;50.192;10.064;2023-06-10T06:16:57;7.88;;;7.28;;
12163;SDS011;6145;50.192;10.064;2023-06-10T06:19:25;8.45;;;7.32;;
12163;SDS011;6145;50.192;10.064;2023-06-10T06:21:52;7.80;;;7.25;;
12163;SDS011;6145;50.192;10.064;2023-06-10T06:24:18;9.35;;;8.32;;
12163;SDS011;6145;50.192;10.064;2023-06-10T06:26:45;8.70;;;7.90;;
12163;SDS011;6145;50.192;10.064;2023-06-10T06:29:12;8.55;;;7.60;;
12163;SDS011;6145;50.192;10.064;2023-06-10T06:31:39;8.00;;;7.30;;
12163;SDS011;6145;50.192;10.064;2023-06-10T06:34:08;8.30;;;7.68;;
12163;SDS011;6145;50.192;10.064;2023-06-10T06:36:40;7.63;;;7.03;;
12163;SDS011;6145;50.192;10.064;2023-06-10T06:39:07;8.05;;;7.28;;
12163;SDS011;6145;50.192;10.064;2023-06-10T06:41:34;8.25;;;7.47;;
12163;SDS011;6145;50.192;10.064;2023-06-10T06:44:01;7.63;;;6.82;;
12163;SDS011;6145;50.192;10.064;2023-06-10T06:46:28;6.88;;;6.05;;
12163;SDS011;6145;50.192;10.064;2023-06-10T06:48:54;10.02;;;6.40;;
12163;SDS011;6145;50.192;10.064;2023-06-10T06:51:21;8.43;;;6.05;;
12163;SDS011;6145;50.192;10.064;2023-06-10T06:53:49;7.65;;;6.53;;
12163;SDS011;6145;50.192;10.064;2023-06-10T06:56:19;7.10;;;6.32;;
12163;SDS011;6145;50.192;10.064;2023-06-10T06:58:46;6.90;;;6.28;;
12163;SDS011;6145;50.192;10.064;2023-06-10T07:01:13;6.50;;;5.95;;
12163;SDS011;6145;50.192;10.064;2023-06-10T07:03:39;7.63;;;6.90;;
12163;SDS011;6145;50.192;10.064;2023-06-10T07:06:07;7.35;;;6.72;;
12163;SDS011;6145;50.192;10.064;2023-06-10T07:08:36;6.03;;;5.43;;
12163;SDS011;6145;50.192;10.064;2023-06-10T07:11:04;6.93;;;6.32;;
12163;SDS011;6145;50.192;10.064;2023-06-10T07:13:31;7.15;;;6.45;;
12163;SDS011;6145;50.192;10.064;2023-06-10T07:15:58;7.03;;;6.32;;
12163;SDS011;6145;50.192;10.064;2023-06-10T07:18:25;9.63;;;6.38;;
12163;SDS011;6145;50.192;10.064;2023-06-10T07:20:52;7.78;;;6.88;;
12163;SDS011;6145;50.192;10.064;2023-06-10T07:23:18;6.75;;;6.15;;
12163;SDS011;6145;50.192;10.064;2023-06-10T07:25:55;6.88;;;6.18;;
12163;SDS011;6145;50.192;10.064;2023-06-10T07:28:24;8.35;;;6.40;;
12163;SDS011;6145;50.192;10.064;2023-06-10T07:30:50;7.13;;;6.40;;
12163;SDS011;6145;50.192;10.064;2023-06-10T07:33:18;7.25;;;6.10;;
12163;SDS011;6145;50.192;10.064;2023-06-10T07:35:45;6.85;;;5.65;;
12163;SDS011;6145;50.192;10.064;2023-06-10T07:38:12;7.20;;;6.50;;
12163;SDS011;6145;50.192;10.064;2023-06-10T07:40:38;7.32;;;6.13;;
12163;SDS011;6145;50.192;10.064;2023-06-10T07:43:05;6.53;;;5.82;;
12163;SDS011;6145;50.192;10.064;2023-06-10T07:45:33;8.00;;;6.30;;
12163;SDS011;6145;50.192;10.064;2023-06-10T07:48:00;7.55;;;6.43;;
12163;SDS011;6145;50.192;10.064;2023-06-10T07:50:27;6.47;;;5.88;;
12163;SDS011;6145;50.192;10.064;2023-06-10T07:52:54;7.50;;;6.10;;
12163;SDS011;6145;50.192;10.064;2023-06-10T07:55:20;6.60;;;5.93;;
12163;SDS011;6145;50.192;10.064;2023-06-10T07:57:47;9.07;;;6.57;;
12163;SDS011;6145;50.192;10.064;2023-06-10T08:00:14;7.18;;;6.57;;
12163;SDS011;6145;50.192;10.064;2023-06-10T08:02:42;8.02;;;7.07;;
12163;SDS011;6145;50.192;10.064;2023-06-10T08:05:09;7.28;;;6.47;;
12163;SDS011;6145;50.192;10.064;2023-06-10T08:07:36;7.43;;;5.97;;
12163;SDS011;6145;50.192;10.064;2023-06-10T08:10:03;6.70;;;6.20;;
12163;SDS011;6145;50.192;10.064;2023-06-10T08:12:31;6.88;;;6.07;;
12163;SDS011;6145;50.192;10.064;2023-06-10T08:14:58;6.35;;;5.85;;
12163;SDS011;6145;50.192;10.064;2023-06-10T08:17:25;6.97;;;6.28;;
12163;SDS011;6145;50.192;10.064;2023-06-10T08:19:53;7.95;;;6.80;;
12163;SDS011;6145;50.192;10.064;2023-06-10T08:22:20;6.35;;;5.85;;
12163;SDS011;6145;50.192;10.064;2023-06-10T08:24:47;6.90;;;6.30;;
12163;SDS011;6145;50.192;10.064;2023-06-10T08:27:13;7.05;;;6.32;;
12163;SDS011;6145;50.192;10.064;2023-06-10T08:29:40;6.90;;;6.25;;
12163;SDS011;6145;50.192;10.064;2023-06-10T08:32:07;6.45;;;5.85;;
12163;SDS011;6145;50.192;10.064;2023-06-10T08:34:34;6.95;;;6.35;;
12163;SDS011;6145;50.192;10.064;2023-06-10T08:37:03;6.50;;;5.97;;
12163;SDS011;6145;50.192;10.064;2023-06-10T08:39:31;6.93;;;6.15;;
12163;SDS011;6145;50.192;10.064;2023-06-10T08:42:04;6.60;;;6.15;;
12163;SDS011;6145;50.192;10.064;2023-06-10T08:44:39;7.22;;;6.57;;
12163;SDS011;6145;50.192;10.064;2023-06-10T08:47:08;8.80;;;5.93;;
12163;SDS011;6145;50.192;10.064;2023-06-10T08:49:40;6.88;;;6.28;;
12163;SDS011;6145;50.192;10.064;2023-06-10T08:52:11;6.88;;;6.28;;
12163;SDS011;6145;50.192;10.064;2023-06-10T08:54:42;7.22;;;6.50;;
12163;SDS011;6145;50.192;10.064;2023-06-10T08:57:12;6.13;;;5.50;;
12163;SDS011;6145;50.192;10.064;2023-06-10T08:59:39;6.97;;;5.93;;
12163;SDS011;6145;50.192;10.064;2023-06-10T09:02:07;7.43;;;5.90;;
12163;SDS011;6145;50.192;10.064;2023-06-10T09:04:36;6.45;;;5.80;;
12163;SDS011;6145;50.192;10.064;2023-06-10T09:07:03;6.90;;;6.40;;
12163;SDS011;6145;50.192;10.064;2023-06-10T09:09:32;6.90;;;6.30;;
12163;SDS011;6145;50.192;10.064;2023-06-10T09:12:01;6.90;;;6.22;;
12163;SDS011;6145;50.192;10.064;2023-06-10T09:14:28;7.22;;;6.50;;
12163;SDS011;6145;50.192;10.064;2023-06-10T09:16:55;6.90;;;6.20;;
12163;SDS011;6145;50.192;10.064;2023-06-10T09:19:23;6.68;;;6.05;;
12163;SDS011;6145;50.192;10.064;2023-06-10T09:21:51;6.60;;;6.10;;
12163;SDS011;6145;50.192;10.064;2023-06-10T09:24:17;6.28;;;5.75;;
12163;SDS011;6145;50.192;10.064;2023-06-10T09:26:46;6.28;;;5.70;;
12163;SDS011;6145;50.192;10.064;2023-06-10T09:29:12;6.68;;;6.07;;
12163;SDS011;6145;50.192;10.064;2023-06-10T09:31:39;6.35;;;5.78;;
12163;SDS011;6145;50.192;10.064;2023-06-10T09:34:07;6.55;;;6.03;;
12163;SDS011;6145;50.192;10.064;2023-06-10T09:36:37;6.30;;;5.80;;
12163;SDS011;6145;50.192;10.064;2023-06-10T09:39:05;6.40;;;5.78;;
12163;SDS011;6145;50.192;10.064;2023-06-10T09:41:40;5.63;;;5.20;;
12163;SDS011;6145;50.192;10.064;2023-06-10T09:44:11;5.90;;;5.38;;
12163;SDS011;6145;50.192;10.064;2023-06-10T09:46:39;6.75;;;6.13;;
12163;SDS011;6145;50.192;10.064;2023-06-10T09:49:06;5.55;;;5.13;;
12163;SDS011;6145;50.192;10.064;2023-06-10T09:51:33;6.20;;;5.50;;
12163;SDS011;6145;50.192;10.064;2023-06-10T09:54:02;6.57;;;5.20;;
12163;SDS011;6145;50.192;10.064;2023-06-10T09:56:32;6.03;;;5.43;;
12163;SDS011;6145;50.192;10.064;2023-06-10T09:59:00;5.70;;;5.20;;
12163;SDS011;6145;50.192;10.064;2023-06-10T10:01:30;5.63;;;5.22;;
12163;SDS011;6145;50.192;10.064;2023-06-10T10:03:59;5.80;;;5.30;;
12163;SDS011;6145;50.192;10.064;2023-06-10T10:06:26;5.65;;;5.20;;
12163;SDS011;6145;50.192;10.064;2023-06-10T10:08:55;5.38;;;4.97;;
12163;SDS011;6145;50.192;10.064;2023-06-10T10:11:22;6.35;;;5.68;;
12163;SDS011;6145;50.192;10.064;2023-06-10T10:13:51;5.50;;;5.10;;
12163;SDS011;6145;50.192;10.064;2023-06-10T10:16:19;5.25;;;4.85;;
12163;SDS011;6145;50.192;10.064;2023-06-10T10:18:49;5.78;;;5.30;;
12163;SDS011;6145;50.192;10.064;2023-06-10T10:21:21;5.40;;;5.00;;
12163;SDS011;6145;50.192;10.064;2023-06-10T10:23:53;5.38;;;4.90;;
12163;SDS011;6145;50.192;10.064;2023-06-10T10:26:25;5.80;;;5.20;;
12163;SDS011;6145;50.192;10.064;2023-06-10T10:28:55;5.28;;;4.88;;
12163;SDS011;6145;50.192;10.064;2023-06-10T10:31:28;5.32;;;4.82;;
12163;SDS011;6145;50.192;10.064;2023-06-10T10:34:00;5.75;;;5.25;;
12163;SDS011;6145;50.192;10.064;2023-06-10T10:36:30;5.18;;;4.68;;
12163;SDS011;6145;50.192;10.064;2023-06-10T10:39:01;5.95;;;4.65;;
12163;SDS011;6145;50.192;10.064;2023-06-10T10:41:28;5.43;;;5.03;;
12163;SDS011;6145;50.192;10.064;2023-06-10T10:43:57;5.10;;;4.70;;
12163;SDS011;6145;50.192;10.064;2023-06-10T10:46:25;4.95;;;4.55;;
12163;SDS011;6145;50.192;10.064;2023-06-10T10:48:52;4.95;;;4.55;;
12163;SDS011;6145;50.192;10.064;2023-06-10T10:51:21;5.85;;;4.40;;
12163;SDS011;6145;50.192;10.064;2023-06-10T10:56:40;4.35;;;4.00;;
12163;SDS011;6145;50.192;10.064;2023-06-10T10:59:43;4.15;;;3.75;;
12163;SDS011;6145;50.192;10.064;2023-06-10T11:02:34;5.25;;;3.83;;
12163;SDS011;6145;50.192;10.064;2023-06-10T11:05:04;4.65;;;4.03;;
12163;SDS011;6145;50.192;10.064;2023-06-10T11:07:34;4.50;;;4.05;;
12163;SDS011;6145;50.192;10.064;2023-06-10T11:10:02;3.78;;;3.47;;
12163;SDS011;6145;50.192;10.064;2023-06-10T11:12:49;4.63;;;4.22;;
12163;SDS011;6145;50.192;10.064;2023-06-10T11:15:18;4.10;;;3.20;;
12163;SDS011;6145;50.192;10.064;2023-06-10T11:20:56;4.65;;;4.18;;
12163;SDS011;6145;50.192;10.064;2023-06-10T11:23:32;4.22;;;3.70;;
12163;SDS011;6145;50.192;10.064;2023-06-10T11:26:12;4.20;;;3.90;;
12163;SDS011;6145;50.192;10.064;2023-06-10T11:29:03;4.82;;;4.22;;
12163;SDS011;6145;50.192;10.064;2023-06-10T11:31:43;4.65;;;4.25;;
12163;SDS011;6145;50.192;10.064;2023-06-10T11:34:12;4.40;;;4.00;;
12163;SDS011;6145;50.192;10.064;2023-06-10T11:36:40;5.40;;;3.90;;
12163;SDS011;6145;50.192;10.064;2023-06-10T11:39:11;4.43;;;4.03;;
12163;SDS011;6145;50.192;10.064;2023-06-10T11:41:38;4.50;;;4.10;;
12163;SDS011;6145;50.192;10.064;2023-06-10T11:44:07;3.88;;;3.58;;
12163;SDS011;6145;50.192;10.064;2023-06-10T11:46:35;6.18;;;4.35;;
12163;SDS011;6145;50.192;10.064;2023-06-10T11:49:02;4.45;;;4.05;;
12163;SDS011;6145;50.192;10.064;2023-06-10T11:51:31;3.90;;;3.53;;
12163;SDS011;6145;50.192;10.064;2023-06-10T11:54:00;4.25;;;3.95;;
12163;SDS011;6145;50.192;10.064;2023-06-10T11:56:29;3.95;;;3.65;;
12163;SDS011;6145;50.192;10.064;2023-06-10T11:58:57;4.63;;;3.45;;
12163;SDS011;6145;50.192;10.064;2023-06-10T12:01:29;5.15;;;4.40;;
12163;SDS011;6145;50.192;10.064;2023-06-10T12:03:57;5.50;;;4.00;;
12163;SDS011;6145;50.192;10.064;2023-06-10T12:06:24;3.95;;;3.65;;
12163;SDS011;6145;50.192;10.064;2023-06-10T12:08:51;17.50;;;7.82;;
12163;SDS011;6145;50.192;10.064;2023-06-10T12:11:19;5.32;;;4.07;;
12163;SDS011;6145;50.192;10.064;2023-06-10T12:13:48;14.30;;;5.32;;
12163;SDS011;6145;50.192;10.064;2023-06-10T12:16:16;6.20;;;4.38;;
12163;SDS011;6145;50.192;10.064;2023-06-10T12:18:44;4.10;;;3.65;;
12163;SDS011;6145;50.192;10.064;2023-06-10T12:21:17;4.93;;;3.97;;
12163;SDS011;6145;50.192;10.064;2023-06-10T12:24:01;4.03;;;3.63;;
12163;SDS011;6145;50.192;10.064;2023-06-10T12:26:34;4.65;;;4.25;;
12163;SDS011;6145;50.192;10.064;2023-06-10T12:29:21;4.30;;;3.97;;
12163;SDS011;6145;50.192;10.064;2023-06-10T12:31:54;5.47;;;4.20;;
12163;SDS011;6145;50.192;10.064;2023-06-10T12:34:27;4.45;;;4.15;;
12163;SDS011;6145;50.192;10.064;2023-06-10T12:36:58;3.90;;;3.60;;
12163;SDS011;6145;50.192;10.064;2023-06-10T12:39:25;4.28;;;3.58;;
12163;SDS011;6145;50.192;10.064;2023-06-10T12:41:51;3.80;;;3.50;;
12163;SDS011;6145;50.192;10.064;2023-06-10T12:44:18;4.18;;;3.58;;
12163;SDS011;6145;50.192;10.064;2023-06-10T12:46:55;3.83;;;3.53;;
12163;SDS011;6145;50.192;10.064;2023-06-10T12:49:22;4.32;;;4.00;;
12163;SDS011;6145;50.192;10.064;2023-06-10T12:51:49;4.03;;;3.72;;
12163;SDS011;6145;50.192;10.064;2023-06-10T12:54:15;3.95;;;3.55;;
12163;SDS011;6145;50.192;10.064;2023-06-10T12:56:42;4.40;;;4.00;;
12163;SDS011;6145;50.192;10.064;2023-06-10T12:59:09;4.93;;;3.72;;
12163;SDS011;6145;50.192;10.064;2023-06-10T13:01:38;3.53;;;3.33;;
12163;SDS011;6145;50.192;10.064;2023-06-10T13:04:05;4.22;;;3.83;;
12163;SDS011;6145;50.192;10.064;2023-06-10T13:06:33;4.50;;;4.10;;
12163;SDS011;6145;50.192;10.064;2023-06-10T13:09:04;5.07;;;4.57;;
12163;SDS011;6145;50.192;10.064;2023-06-10T13:11:33;4.40;;;4.00;;
12163;SDS011;6145;50.192;10.064;2023-06-10T13:14:01;4.25;;;3.67;;
12163;SDS011;6145;50.192;10.064;2023-06-10T13:16:29;4.10;;;3.67;;
12163;SDS011;6145;50.192;10.064;2023-06-10T13:18:58;4.38;;;3.75;;
12163;SDS011;6145;50.192;10.064;2023-06-10T13:21:25;4.07;;;3.75;;
12163;SDS011;6145;50.192;10.064;2023-06-10T13:23:55;4.07;;;3.75;;
12163;SDS011;6145;50.192;10.064;2023-06-10T13:26:22;4.65;;;4.05;;
12163;SDS011;6145;50.192;10.064;2023-06-10T13:28:49;4.07;;;3.78;;
12163;SDS011;6145;50.192;10.064;2023-06-10T13:31:15;4.50;;;3.78;;
12163;SDS011;6145;50.192;10.064;2023-06-10T13:33:43;4.70;;;4.22;;
12163;SDS011;6145;50.192;10.064;2023-06-10T13:36:11;4.78;;;4.32;;
12163;SDS011;6145;50.192;10.064;2023-06-10T13:38:37;4.45;;;3.97;;
12163;SDS011;6145;50.192;10.064;2023-06-10T13:41:04;4.38;;;3.80;;
12163;SDS011;6145;50.192;10.064;2023-06-10T13:43:31;4.13;;;3.83;;
12163;SDS011;6145;50.192;10.064;2023-06-10T13:45:58;4.88;;;4.20;;
12163;SDS011;6145;50.192;10.064;2023-06-10T13:48:25;4.30;;;4.00;;
12163;SDS011;6145;50.192;10.064;2023-06-10T13:50:52;3.85;;;3.47;;
12163;SDS011;6145;50.192;10.064;2023-06-10T13:53:20;6.75;;;4.57;;
12163;SDS011;6145;50.192;10.064;2023-06-10T13:55:46;4.20;;;3.78;;
12163;SDS011;6145;50.192;10.064;2023-06-10T13:58:13;4.63;;;4.22;;
12163;SDS011;6145;50.192;10.064;2023-06-10T14:00:40;4.80;;;4.35;;
12163;SDS011;6145;50.192;10.064;2023-06-10T14:03:07;4.85;;;4.32;;
12163;SDS011;6145;50.192;10.064;2023-06-10T14:05:33;4.50;;;4.10;;
12163;SDS011;6145;50.192;10.064;2023-06-10T14:08:00;5.25;;;3.80;;
12163;SDS011;6145;50.192;10.064;2023-06-10T14:10:29;4.50;;;4.10;;
12163;SDS011;6145;50.192;10.064;2023-06-10T14:12:56;4.72;;;4.43;;
12163;SDS011;6145;50.192;10.064;2023-06-10T14:15:22;4.88;;;4.45;;
12163;SDS011;6145;50.192;10.064;2023-06-10T14:17:49;6.20;;;5.35;;
12163;SDS011;6145;50.192;10.064;2023-06-10T14:20:16;4.70;;;4.30;;
12163;SDS011;6145;50.192;10.064;2023-06-10T14:22:43;4.97;;;4.57;;
12163;SDS011;6145;50.192;10.064;2023-06-10T14:25:09;4.43;;;4.05;;
12163;SDS011;6145;50.192;10.064;2023-06-10T14:27:38;4.80;;;3.58;;
12163;SDS011;6145;50.192;10.064;2023-06-10T14:30:05;4.43;;;4.03;;
12163;SDS011;6145;50.192;10.064;2023-06-10T14:32:33;4.68;;;4.28;;
12163;SDS011;6145;50.192;10.064;2023-06-10T14:34:59;5.47;;;4.60;;
12163;SDS011;6145;50.192;10.064;2023-06-10T14:37:26;7.25;;;5.35;;
12163;SDS011;6145;50.192;10.064;2023-06-10T14:39:53;10.70;;;5.38;;
12163;SDS011;6145;50.192;10.064;2023-06-10T14:42:19;5.75;;;5.07;;
12163;SDS011;6145;50.192;10.064;2023-06-10T14:44:48;6.00;;;5.40;;
12163;SDS011;6145;50.192;10.064;2023-06-10T14:47:15;5.93;;;5.43;;
12163;SDS011;6145;50.192;10.064;2023-06-10T14:49:42;6.03;;;5.53;;
12163;SDS011;6145;50.192;10.064;2023-06-10T14:52:09;5.78;;;5.28;;
12163;SDS011;6145;50.192;10.064;2023-06-10T14:54:36;5.45;;;5.05;;
12163;SDS011;6145;50.192;10.064;2023-06-10T14:57:02;5.50;;;5.10;;
12163;SDS011;6145;50.192;10.064;2023-06-10T14:59:30;5.35;;;4.95;;
12163;SDS011;6145;50.192;10.064;2023-06-10T15:01:58;6.05;;;5.55;;
12163;SDS011;6145;50.192;10.064;2023-06-10T15:04:26;5.90;;;5.50;;
12163;SDS011;6145;50.192;10.064;2023-06-10T15:06:53;5.95;;;5.50;;
12163;SDS011;6145;50.192;10.064;2023-06-10T15:09:20;6.57;;;5.97;;
12163;SDS011;6145;50.192;10.064;2023-06-10T15:11:46;6.25;;;5.78;;
12163;SDS011;6145;50.192;10.064;2023-06-10T15:14:13;5.97;;;5.47;;
12163;SDS011;6145;50.192;10.064;2023-06-10T15:16:40;6.30;;;5.68;;
12163;SDS011;6145;50.192;10.064;2023-06-10T15:19:08;5.82;;;5.43;;
12163;SDS011;6145;50.192;10.064;2023-06-10T15:21:35;6.97;;;6.28;;
12163;SDS011;6145;50.192;10.064;2023-06-10T15:24:02;6.20;;;5.78;;
12163;SDS011;6145;50.192;10.064;2023-06-10T15:26:29;6.75;;;6.15;;
12163;SDS011;6145;50.192;10.064;2023-06-10T15:28:56;6.10;;;5.50;;
12163;SDS011;6145;50.192;10.064;2023-06-10T15:31:23;7.35;;;6.75;;
12163;SDS011;6145;50.192;10.064;2023-06-10T15:33:49;8.73;;;6.40;;
12163;SDS011;6145;50.192;10.064;2023-06-10T15:36:17;6.55;;;6.05;;
12163;SDS011;6145;50.192;10.064;2023-06-10T15:38:44;6.30;;;5.78;;
12163;SDS011;6145;50.192;10.064;2023-06-10T15:41:12;5.88;;;5.38;;
12163;SDS011;6145;50.192;10.064;2023-06-10T15:43:39;6.00;;;5.38;;